Terminal Aerodrome Forecast
Issued by NWS Rapid City, SD

Home | Current Version | Previous Version | Graphics & Text | Print | Product List | Glossary On
Versions: 1 2 3 4 5 6 7 8 9 10 11 12 13 14 15
000
FTUS43 KUNR 311100
TAFRAP
TAF
KRAP 311120Z 3112/0112 VRB05KT P6SM BKN100
     FM311800 35011KT P6SM -SHRA BKN040 OVC080
      TEMPO 3119/3123 5SM TSRA OVC040CB
     FM010200 33017KT P6SM SCT080 BKN150=

USA.gov is the U.S. government's official web portal to all federal, state and local government web resources and services.